sensor_id;sensor_type;location;lat;lon;timestamp;temperature;humidity
45643;DHT22;31358;46.008;11.144;2023-03-04T00:01:52;7.90;99.90
45643;DHT22;31358;46.008;11.144;2023-03-04T00:04:18;8.00;99.90
45643;DHT22;31358;46.008;11.144;2023-03-04T00:06:44;7.90;99.90
45643;DHT22;31358;46.008;11.144;2023-03-04T00:09:09;8.00;99.90
45643;DHT22;31358;46.008;11.144;2023-03-04T00:11:35;8.00;99.90
45643;DHT22;31358;46.008;11.144;2023-03-04T00:14:01;8.10;99.90
45643;DHT22;31358;46.008;11.144;2023-03-04T00:16:26;8.00;99.90
45643;DHT22;31358;46.008;11.144;2023-03-04T00:18:54;7.90;99.90
45643;DHT22;31358;46.008;11.144;2023-03-04T00:21:20;7.80;99.90
45643;DHT22;31358;46.008;11.144;2023-03-04T00:23:46;7.80;99.90
45643;DHT22;31358;46.008;11.144;2023-03-04T00:26:12;7.80;99.90
45643;DHT22;31358;46.008;11.144;2023-03-04T00:28:38;7.70;99.90
45643;DHT22;31358;46.008;11.144;2023-03-04T00:31:07;7.60;99.90
45643;DHT22;31358;46.008;11.144;2023-03-04T00:33:33;7.40;99.90
45643;DHT22;31358;46.008;11.144;2023-03-04T00:35:59;7.50;99.90
45643;DHT22;31358;46.008;11.144;2023-03-04T00:38:25;7.30;99.90
45643;DHT22;31358;46.008;11.144;2023-03-04T00:40:51;7.10;99.90
45643;DHT22;31358;46.008;11.144;2023-03-04T00:43:16;6.90;99.90
45643;DHT22;31358;46.008;11.144;2023-03-04T00:45:42;6.80;99.90
45643;DHT22;31358;46.008;11.144;2023-03-04T00:48:07;6.60;99.90
45643;DHT22;31358;46.008;11.144;2023-03-04T00:50:33;6.60;99.90
45643;DHT22;31358;46.008;11.144;2023-03-04T00:52:59;6.50;99.90
45643;DHT22;31358;46.008;11.144;2023-03-04T00:55:26;6.50;99.90
45643;DHT22;31358;46.008;11.144;2023-03-04T00:57:51;6.50;99.90
45643;DHT22;31358;46.008;11.144;2023-03-04T01:00:17;6.50;99.90
45643;DHT22;31358;46.008;11.144;2023-03-04T01:02:43;6.60;99.90
45643;DHT22;31358;46.008;11.144;2023-03-04T01:05:09;6.50;99.90
45643;DHT22;31358;46.008;11.144;2023-03-04T01:07:35;6.50;99.90
45643;DHT22;31358;46.008;11.144;2023-03-04T01:10:01;6.60;99.90
45643;DHT22;31358;46.008;11.144;2023-03-04T01:12:27;6.80;99.90
45643;DHT22;31358;46.008;11.144;2023-03-04T01:14:52;6.90;99.90
45643;DHT22;31358;46.008;11.144;2023-03-04T01:17:18;6.90;99.90
45643;DHT22;31358;46.008;11.144;2023-03-04T01:19:44;6.60;99.90
45643;DHT22;31358;46.008;11.144;2023-03-04T01:22:10;6.50;99.90
45643;DHT22;31358;46.008;11.144;2023-03-04T01:24:36;6.50;99.90
45643;DHT22;31358;46.008;11.144;2023-03-04T01:27:02;6.20;99.90
45643;DHT22;31358;46.008;11.144;2023-03-04T01:29:28;6.30;99.90
45643;DHT22;31358;46.008;11.144;2023-03-04T01:31:53;6.10;99.90
45643;DHT22;31358;46.008;11.144;2023-03-04T01:34:19;6.00;99.90
45643;DHT22;31358;46.008;11.144;2023-03-04T01:36:45;5.90;99.90
45643;DHT22;31358;46.008;11.144;2023-03-04T01:39:10;5.90;99.90
45643;DHT22;31358;46.008;11.144;2023-03-04T01:41:36;5.90;99.90
45643;DHT22;31358;46.008;11.144;2023-03-04T01:44:02;5.90;99.90
45643;DHT22;31358;46.008;11.144;2023-03-04T01:46:29;5.90;99.90
45643;DHT22;31358;46.008;11.144;2023-03-04T01:48:56;5.80;99.90
45643;DHT22;31358;46.008;11.144;2023-03-04T01:51:22;5.90;99.90
45643;DHT22;31358;46.008;11.144;2023-03-04T01:53:49;5.80;99.90
45643;DHT22;31358;46.008;11.144;2023-03-04T01:56:28;5.80;99.90
45643;DHT22;31358;46.008;11.144;2023-03-04T01:59:11;5.70;99.90
45643;DHT22;31358;46.008;11.144;2023-03-04T02:01:37;5.60;99.90
45643;DHT22;31358;46.008;11.144;2023-03-04T02:04:03;5.60;99.90
45643;DHT22;31358;46.008;11.144;2023-03-04T02:06:29;5.60;99.90
45643;DHT22;31358;46.008;11.144;2023-03-04T02:08:55;5.60;99.90
45643;DHT22;31358;46.008;11.144;2023-03-04T02:11:21;5.60;99.90
45643;DHT22;31358;46.008;11.144;2023-03-04T02:13:46;5.50;99.90
45643;DHT22;31358;46.008;11.144;2023-03-04T02:16:12;5.40;99.90
45643;DHT22;31358;46.008;11.144;2023-03-04T02:18:38;5.60;99.90
45643;DHT22;31358;46.008;11.144;2023-03-04T02:21:07;5.60;99.90
45643;DHT22;31358;46.008;11.144;2023-03-04T02:24:02;5.60;99.90
45643;DHT22;31358;46.008;11.144;2023-03-04T02:26:32;5.30;99.90
45643;DHT22;31358;46.008;11.144;2023-03-04T02:29:00;5.30;99.90
45643;DHT22;31358;46.008;11.144;2023-03-04T02:31:33;5.40;99.90
45643;DHT22;31358;46.008;11.144;2023-03-04T02:34:02;5.50;99.90
45643;DHT22;31358;46.008;11.144;2023-03-04T02:36:29;5.30;99.90
45643;DHT22;31358;46.008;11.144;2023-03-04T02:38:59;5.30;99.90
45643;DHT22;31358;46.008;11.144;2023-03-04T02:41:25;5.30;99.90
45643;DHT22;31358;46.008;11.144;2023-03-04T02:43:54;5.40;99.90
45643;DHT22;31358;46.008;11.144;2023-03-04T02:46:21;5.30;99.90
45643;DHT22;31358;46.008;11.144;2023-03-04T02:48:48;5.50;99.90
45643;DHT22;31358;46.008;11.144;2023-03-04T02:51:14;5.40;99.90
45643;DHT22;31358;46.008;11.144;2023-03-04T02:53:40;5.50;99.90
45643;DHT22;31358;46.008;11.144;2023-03-04T02:56:06;5.60;99.90
45643;DHT22;31358;46.008;11.144;2023-03-04T02:58:32;5.60;99.90
45643;DHT22;31358;46.008;11.144;2023-03-04T03:00:57;5.60;99.90
45643;DHT22;31358;46.008;11.144;2023-03-04T03:03:23;5.60;99.90
45643;DHT22;31358;46.008;11.144;2023-03-04T03:05:49;5.50;99.90
45643;DHT22;31358;46.008;11.144;2023-03-04T03:08:15;5.40;99.90
45643;DHT22;31358;46.008;11.144;2023-03-04T03:10:40;5.40;99.90
45643;DHT22;31358;46.008;11.144;2023-03-04T03:13:06;5.30;99.90
45643;DHT22;31358;46.008;11.144;2023-03-04T03:15:32;5.40;99.90
45643;DHT22;31358;46.008;11.144;2023-03-04T03:17:57;5.40;99.90
45643;DHT22;31358;46.008;11.144;2023-03-04T03:20:23;5.30;99.90
45643;DHT22;31358;46.008;11.144;2023-03-04T03:22:49;5.30;99.90
45643;DHT22;31358;46.008;11.144;2023-03-04T03:25:16;5.30;99.90
45643;DHT22;31358;46.008;11.144;2023-03-04T03:27:42;5.30;99.90
45643;DHT22;31358;46.008;11.144;2023-03-04T03:30:10;5.20;99.90
45643;DHT22;31358;46.008;11.144;2023-03-04T03:32:36;5.20;99.90
45643;DHT22;31358;46.008;11.144;2023-03-04T03:35:01;5.10;99.90
45643;DHT22;31358;46.008;11.144;2023-03-04T03:37:27;5.20;99.90
45643;DHT22;31358;46.008;11.144;2023-03-04T03:39:52;5.20;99.90
45643;DHT22;31358;46.008;11.144;2023-03-04T03:42:18;5.20;99.90
45643;DHT22;31358;46.008;11.144;2023-03-04T03:44:44;5.20;99.90
45643;DHT22;31358;46.008;11.144;2023-03-04T03:47:09;5.10;99.90
45643;DHT22;31358;46.008;11.144;2023-03-04T03:49:35;5.30;99.90
45643;DHT22;31358;46.008;11.144;2023-03-04T03:52:01;5.20;99.90
45643;DHT22;31358;46.008;11.144;2023-03-04T03:54:26;5.10;99.90
45643;DHT22;31358;46.008;11.144;2023-03-04T03:56:52;5.10;99.90
45643;DHT22;31358;46.008;11.144;2023-03-04T03:59:18;5.10;99.90
45643;DHT22;31358;46.008;11.144;2023-03-04T04:01:43;4.90;99.90
45643;DHT22;31358;46.008;11.144;2023-03-04T04:04:09;5.00;99.90
45643;DHT22;31358;46.008;11.144;2023-03-04T04:06:34;5.00;99.90
45643;DHT22;31358;46.008;11.144;2023-03-04T04:09:00;5.10;99.90
45643;DHT22;31358;46.008;11.144;2023-03-04T04:11:26;5.10;99.90
45643;DHT22;31358;46.008;11.144;2023-03-04T04:13:52;5.10;99.90
45643;DHT22;31358;46.008;11.144;2023-03-04T04:16:18;5.00;99.90
45643;DHT22;31358;46.008;11.144;2023-03-04T04:18:44;4.90;99.90
45643;DHT22;31358;46.008;11.144;2023-03-04T04:21:09;4.90;99.90
45643;DHT22;31358;46.008;11.144;2023-03-04T04:23:35;5.00;99.90
45643;DHT22;31358;46.008;11.144;2023-03-04T04:26:01;5.10;99.90
45643;DHT22;31358;46.008;11.144;2023-03-04T04:28:26;5.10;99.90
45643;DHT22;31358;46.008;11.144;2023-03-04T04:30:52;5.00;99.90
45643;DHT22;31358;46.008;11.144;2023-03-04T04:33:18;5.00;99.90
45643;DHT22;31358;46.008;11.144;2023-03-04T04:35:43;5.00;99.90
45643;DHT22;31358;46.008;11.144;2023-03-04T04:38:09;4.80;99.90
45643;DHT22;31358;46.008;11.144;2023-03-04T04:40:36;4.80;99.90
45643;DHT22;31358;46.008;11.144;2023-03-04T04:43:02;4.80;99.90
45643;DHT22;31358;46.008;11.144;2023-03-04T04:45:27;4.90;99.90
45643;DHT22;31358;46.008;11.144;2023-03-04T04:47:54;4.90;99.90
45643;DHT22;31358;46.008;11.144;2023-03-04T04:50:22;4.80;99.90
45643;DHT22;31358;46.008;11.144;2023-03-04T04:52:48;4.80;99.90
45643;DHT22;31358;46.008;11.144;2023-03-04T04:55:14;4.60;99.90
45643;DHT22;31358;46.008;11.144;2023-03-04T04:57:39;4.60;99.90
45643;DHT22;31358;46.008;11.144;2023-03-04T05:00:06;4.70;99.90
45643;DHT22;31358;46.008;11.144;2023-03-04T05:02:32;4.70;99.90
45643;DHT22;31358;46.008;11.144;2023-03-04T05:05:04;4.70;99.90
45643;DHT22;31358;46.008;11.144;2023-03-04T05:07:30;4.60;99.90
45643;DHT22;31358;46.008;11.144;2023-03-04T05:09:56;4.50;99.90
45643;DHT22;31358;46.008;11.144;2023-03-04T05:12:22;4.40;99.90
45643;DHT22;31358;46.008;11.144;2023-03-04T05:14:47;4.50;99.90
45643;DHT22;31358;46.008;11.144;2023-03-04T05:17:13;4.50;99.90
45643;DHT22;31358;46.008;11.144;2023-03-04T05:19:39;4.40;99.90
45643;DHT22;31358;46.008;11.144;2023-03-04T05:22:04;4.40;99.90
45643;DHT22;31358;46.008;11.144;2023-03-04T05:24:30;4.60;99.90
45643;DHT22;31358;46.008;11.144;2023-03-04T05:26:55;4.50;99.90
45643;DHT22;31358;46.008;11.144;2023-03-04T05:29:21;4.60;99.90
45643;DHT22;31358;46.008;11.144;2023-03-04T05:31:47;4.60;99.90
45643;DHT22;31358;46.008;11.144;2023-03-04T05:34:12;4.60;99.90
45643;DHT22;31358;46.008;11.144;2023-03-04T05:36:38;4.70;99.90
45643;DHT22;31358;46.008;11.144;2023-03-04T05:39:04;4.50;99.90
45643;DHT22;31358;46.008;11.144;2023-03-04T05:41:30;4.50;99.90
45643;DHT22;31358;46.008;11.144;2023-03-04T05:43:55;4.50;99.90
45643;DHT22;31358;46.008;11.144;2023-03-04T05:46:21;4.40;99.90
45643;DHT22;31358;46.008;11.144;2023-03-04T05:48:50;4.20;99.90
45643;DHT22;31358;46.008;11.144;2023-03-04T05:51:17;4.30;99.90
45643;DHT22;31358;46.008;11.144;2023-03-04T05:53:43;4.40;99.90
45643;DHT22;31358;46.008;11.144;2023-03-04T05:56:14;4.60;99.90
45643;DHT22;31358;46.008;11.144;2023-03-04T05:58:41;4.50;99.90
45643;DHT22;31358;46.008;11.144;2023-03-04T06:01:07;4.40;99.90
45643;DHT22;31358;46.008;11.144;2023-03-04T06:03:34;4.40;99.90
45643;DHT22;31358;46.008;11.144;2023-03-04T06:05:59;4.40;99.90
45643;DHT22;31358;46.008;11.144;2023-03-04T06:08:26;4.30;99.90
45643;DHT22;31358;46.008;11.144;2023-03-04T06:10:53;4.30;99.90
45643;DHT22;31358;46.008;11.144;2023-03-04T06:13:19;4.20;99.90
45643;DHT22;31358;46.008;11.144;2023-03-04T06:15:45;4.20;99.90
45643;DHT22;31358;46.008;11.144;2023-03-04T06:18:11;4.40;99.90
45643;DHT22;31358;46.008;11.144;2023-03-04T06:20:37;4.50;99.90
45643;DHT22;31358;46.008;11.144;2023-03-04T06:23:03;4.50;99.90
45643;DHT22;31358;46.008;11.144;2023-03-04T06:25:30;4.40;99.90
45643;DHT22;31358;46.008;11.144;2023-03-04T06:27:56;4.50;99.90
45643;DHT22;31358;46.008;11.144;2023-03-04T06:30:22;4.70;99.90
45643;DHT22;31358;46.008;11.144;2023-03-04T06:32:48;4.80;99.90
45643;DHT22;31358;46.008;11.144;2023-03-04T06:35:15;4.60;99.90
45643;DHT22;31358;46.008;11.144;2023-03-04T06:37:41;4.60;99.90
45643;DHT22;31358;46.008;11.144;2023-03-04T06:40:08;4.60;99.90
45643;DHT22;31358;46.008;11.144;2023-03-04T06:42:35;4.50;99.90
45643;DHT22;31358;46.008;11.144;2023-03-04T06:45:02;4.50;99.90
45643;DHT22;31358;46.008;11.144;2023-03-04T06:47:28;4.40;99.90
45643;DHT22;31358;46.008;11.144;2023-03-04T06:49:54;4.50;99.90
45643;DHT22;31358;46.008;11.144;2023-03-04T06:52:19;4.50;99.90
45643;DHT22;31358;46.008;11.144;2023-03-04T06:54:45;4.40;99.90
45643;DHT22;31358;46.008;11.144;2023-03-04T06:57:11;4.50;99.90
45643;DHT22;31358;46.008;11.144;2023-03-04T06:59:38;4.40;99.90
45643;DHT22;31358;46.008;11.144;2023-03-04T07:02:04;4.40;99.90
45643;DHT22;31358;46.008;11.144;2023-03-04T07:04:30;4.40;99.90
45643;DHT22;31358;46.008;11.144;2023-03-04T07:06:55;4.50;99.90
45643;DHT22;31358;46.008;11.144;2023-03-04T07:09:21;4.60;99.90
45643;DHT22;31358;46.008;11.144;2023-03-04T07:11:47;4.60;99.90
45643;DHT22;31358;46.008;11.144;2023-03-04T07:14:13;4.60;99.90
45643;DHT22;31358;46.008;11.144;2023-03-04T07:16:39;4.50;99.90
45643;DHT22;31358;46.008;11.144;2023-03-04T07:19:04;4.50;99.90
45643;DHT22;31358;46.008;11.144;2023-03-04T07:21:30;4.50;99.90
45643;DHT22;31358;46.008;11.144;2023-03-04T07:23:56;4.50;99.90
45643;DHT22;31358;46.008;11.144;2023-03-04T07:26:22;4.50;99.90
45643;DHT22;31358;46.008;11.144;2023-03-04T07:28:47;4.60;99.90
45643;DHT22;31358;46.008;11.144;2023-03-04T07:33:45;4.60;99.90
45643;DHT22;31358;46.008;11.144;2023-03-04T07:36:11;4.60;99.90
45643;DHT22;31358;46.008;11.144;2023-03-04T07:38:42;4.70;99.90
45643;DHT22;31358;46.008;11.144;2023-03-04T07:41:08;5.00;99.90
45643;DHT22;31358;46.008;11.144;2023-03-04T07:43:33;5.30;99.90
45643;DHT22;31358;46.008;11.144;2023-03-04T07:46:00;5.40;99.90
45643;DHT22;31358;46.008;11.144;2023-03-04T07:48:27;5.00;99.90
45643;DHT22;31358;46.008;11.144;2023-03-04T07:51:13;4.90;99.90
45643;DHT22;31358;46.008;11.144;2023-03-04T07:53:39;4.80;99.90
45643;DHT22;31358;46.008;11.144;2023-03-04T07:56:06;4.70;99.90
45643;DHT22;31358;46.008;11.144;2023-03-04T07:58:32;5.00;99.90
45643;DHT22;31358;46.008;11.144;2023-03-04T08:00:58;5.10;99.90
45643;DHT22;31358;46.008;11.144;2023-03-04T08:03:24;5.00;99.90
45643;DHT22;31358;46.008;11.144;2023-03-04T08:05:50;5.10;99.90
45643;DHT22;31358;46.008;11.144;2023-03-04T08:08:16;5.20;99.90
45643;DHT22;31358;46.008;11.144;2023-03-04T08:10:43;5.30;99.90
45643;DHT22;31358;46.008;11.144;2023-03-04T08:13:09;5.30;99.90
45643;DHT22;31358;46.008;11.144;2023-03-04T08:15:39;5.30;99.90
45643;DHT22;31358;46.008;11.144;2023-03-04T08:18:05;5.50;99.90
45643;DHT22;31358;46.008;11.144;2023-03-04T08:20:31;5.50;99.90
45643;DHT22;31358;46.008;11.144;2023-03-04T08:22:57;5.50;99.90
45643;DHT22;31358;46.008;11.144;2023-03-04T08:25:22;5.60;99.90
45643;DHT22;31358;46.008;11.144;2023-03-04T08:27:48;5.40;99.90
45643;DHT22;31358;46.008;11.144;2023-03-04T08:30:14;5.40;99.90
45643;DHT22;31358;46.008;11.144;2023-03-04T08:32:39;5.60;99.90
45643;DHT22;31358;46.008;11.144;2023-03-04T08:35:05;5.60;99.90
45643;DHT22;31358;46.008;11.144;2023-03-04T08:37:31;5.70;99.90
45643;DHT22;31358;46.008;11.144;2023-03-04T08:39:56;5.70;99.90
45643;DHT22;31358;46.008;11.144;2023-03-04T08:42:22;5.70;99.90
45643;DHT22;31358;46.008;11.144;2023-03-04T08:44:49;5.70;99.90
45643;DHT22;31358;46.008;11.144;2023-03-04T08:47:15;5.80;99.90
45643;DHT22;31358;46.008;11.144;2023-03-04T08:49:41;5.90;99.90
45643;DHT22;31358;46.008;11.144;2023-03-04T08:52:06;5.90;99.90
45643;DHT22;31358;46.008;11.144;2023-03-04T08:54:32;6.00;99.90
45643;DHT22;31358;46.008;11.144;2023-03-04T08:56:58;6.10;99.40
45643;DHT22;31358;46.008;11.144;2023-03-04T08:59:23;6.10;99.40
45643;DHT22;31358;46.008;11.144;2023-03-04T09:01:49;6.20;99.20
45643;DHT22;31358;46.008;11.144;2023-03-04T09:04:15;6.30;99.40
45643;DHT22;31358;46.008;11.144;2023-03-04T09:06:40;6.40;99.50
45643;DHT22;31358;46.008;11.144;2023-03-04T09:09:06;6.50;99.60
45643;DHT22;31358;46.008;11.144;2023-03-04T09:11:32;6.50;99.70
45643;DHT22;31358;46.008;11.144;2023-03-04T09:13:58;6.50;99.50
45643;DHT22;31358;46.008;11.144;2023-03-04T09:16:24;6.70;99.90
45643;DHT22;31358;46.008;11.144;2023-03-04T09:18:49;6.60;99.30
45643;DHT22;31358;46.008;11.144;2023-03-04T09:21:15;6.70;99.40
45643;DHT22;31358;46.008;11.144;2023-03-04T09:23:41;6.70;99.20
45643;DHT22;31358;46.008;11.144;2023-03-04T09:26:21;6.80;99.30
45643;DHT22;31358;46.008;11.144;2023-03-04T09:28:54;6.90;99.60
45643;DHT22;31358;46.008;11.144;2023-03-04T09:31:22;6.90;99.10
45643;DHT22;31358;46.008;11.144;2023-03-04T09:33:48;7.10;99.10
45643;DHT22;31358;46.008;11.144;2023-03-04T09:36:15;7.10;98.80
45643;DHT22;31358;46.008;11.144;2023-03-04T09:38:41;7.10;98.50
45643;DHT22;31358;46.008;11.144;2023-03-04T09:43:40;7.30;98.70
45643;DHT22;31358;46.008;11.144;2023-03-04T09:46:11;7.30;98.50
45643;DHT22;31358;46.008;11.144;2023-03-04T09:48:50;7.40;97.80
45643;DHT22;31358;46.008;11.144;2023-03-04T09:51:24;7.40;97.30
45643;DHT22;31358;46.008;11.144;2023-03-04T09:56:27;7.70;97.10
45643;DHT22;31358;46.008;11.144;2023-03-04T09:59:17;7.80;97.30
45643;DHT22;31358;46.008;11.144;2023-03-04T10:01:54;8.00;97.40
45643;DHT22;31358;46.008;11.144;2023-03-04T10:04:40;8.00;97.00
45643;DHT22;31358;46.008;11.144;2023-03-04T10:07:14;8.10;96.60
45643;DHT22;31358;46.008;11.144;2023-03-04T10:12:21;8.30;96.40
45643;DHT22;31358;46.008;11.144;2023-03-04T10:14:52;8.50;96.60
45643;DHT22;31358;46.008;11.144;2023-03-04T10:17:24;8.40;96.30
45643;DHT22;31358;46.008;11.144;2023-03-04T10:24:57;8.60;95.70
45643;DHT22;31358;46.008;11.144;2023-03-04T10:27:23;8.60;95.30
45643;DHT22;31358;46.008;11.144;2023-03-04T10:29:50;8.70;95.10
45643;DHT22;31358;46.008;11.144;2023-03-04T10:32:18;9.10;95.50
45643;DHT22;31358;46.008;11.144;2023-03-04T10:34:43;9.20;95.70
45643;DHT22;31358;46.008;11.144;2023-03-04T10:37:09;9.20;95.40
45643;DHT22;31358;46.008;11.144;2023-03-04T10:39:40;9.30;95.60
45643;DHT22;31358;46.008;11.144;2023-03-04T10:44:33;9.40;95.20
45643;DHT22;31358;46.008;11.144;2023-03-04T10:47:00;9.50;94.70
45643;DHT22;31358;46.008;11.144;2023-03-04T10:49:27;9.70;94.30
45643;DHT22;31358;46.008;11.144;2023-03-04T10:52:02;9.70;93.60
45643;DHT22;31358;46.008;11.144;2023-03-04T10:54:35;9.80;93.40
45643;DHT22;31358;46.008;11.144;2023-03-04T10:57:18;9.90;94.30
45643;DHT22;31358;46.008;11.144;2023-03-04T10:59:48;9.90;93.40
45643;DHT22;31358;46.008;11.144;2023-03-04T11:02:33;10.10;93.10
45643;DHT22;31358;46.008;11.144;2023-03-04T11:07:27;10.30;93.20
45643;DHT22;31358;46.008;11.144;2023-03-04T11:09:53;10.60;93.30
45643;DHT22;31358;46.008;11.144;2023-03-04T11:12:21;10.70;93.10
45643;DHT22;31358;46.008;11.144;2023-03-04T11:14:56;10.80;92.30
45643;DHT22;31358;46.008;11.144;2023-03-04T11:20:13;11.30;91.00
45643;DHT22;31358;46.008;11.144;2023-03-04T11:22:42;11.50;90.80
45643;DHT22;31358;46.008;11.144;2023-03-04T11:25:23;11.40;90.30
45643;DHT22;31358;46.008;11.144;2023-03-04T11:27:54;11.30;90.50
45643;DHT22;31358;46.008;11.144;2023-03-04T11:30:40;11.60;91.20
45643;DHT22;31358;46.008;11.144;2023-03-04T11:38:47;11.60;90.00
45643;DHT22;31358;46.008;11.144;2023-03-04T11:41:19;11.90;90.60
45643;DHT22;31358;46.008;11.144;2023-03-04T11:43:45;12.00;90.60
45643;DHT22;31358;46.008;11.144;2023-03-04T11:49:10;12.20;90.30
45643;DHT22;31358;46.008;11.144;2023-03-04T11:52:06;12.30;90.00
45643;DHT22;31358;46.008;11.144;2023-03-04T11:57:07;12.60;87.70
45643;DHT22;31358;46.008;11.144;2023-03-04T12:02:24;12.60;90.00
45643;DHT22;31358;46.008;11.144;2023-03-04T12:16:29;13.30;87.90
45643;DHT22;31358;46.008;11.144;2023-03-04T12:19:01;13.40;87.40
45643;DHT22;31358;46.008;11.144;2023-03-04T12:29:44;13.50;85.50
45643;DHT22;31358;46.008;11.144;2023-03-04T12:32:35;13.40;83.80
45643;DHT22;31358;46.008;11.144;2023-03-04T12:43:45;14.10;82.50
45643;DHT22;31358;46.008;11.144;2023-03-04T12:49:39;13.90;81.40
45643;DHT22;31358;46.008;11.144;2023-03-04T12:54:55;14.30;81.00
45643;DHT22;31358;46.008;11.144;2023-03-04T12:57:24;14.40;82.40
45643;DHT22;31358;46.008;11.144;2023-03-04T13:02:33;14.30;81.50
45643;DHT22;31358;46.008;11.144;2023-03-04T13:10:50;14.40;79.70
45643;DHT22;31358;46.008;11.144;2023-03-04T13:16:02;14.60;79.30
45643;DHT22;31358;46.008;11.144;2023-03-04T13:18:34;14.60;78.80
45643;DHT22;31358;46.008;11.144;2023-03-04T13:23:34;14.70;77.70
45643;DHT22;31358;46.008;11.144;2023-03-04T13:28:36;14.70;77.70
45643;DHT22;31358;46.008;11.144;2023-03-04T13:36:04;14.80;73.80
45643;DHT22;31358;46.008;11.144;2023-03-04T13:38:35;15.00;75.60
45643;DHT22;31358;46.008;11.144;2023-03-04T13:41:15;15.20;76.80
45643;DHT22;31358;46.008;11.144;2023-03-04T13:43:54;15.20;75.70
45643;DHT22;31358;46.008;11.144;2023-03-04T13:59:31;15.40;73.90
45643;DHT22;31358;46.008;11.144;2023-03-04T14:02:00;15.50;75.90
45643;DHT22;31358;46.008;11.144;2023-03-04T14:04:32;15.50;74.20
45643;DHT22;31358;46.008;11.144;2023-03-04T14:07:00;15.50;75.60
45643;DHT22;31358;46.008;11.144;2023-03-04T14:09:30;15.50;75.10
45643;DHT22;31358;46.008;11.144;2023-03-04T14:11:58;15.60;74.60
45643;DHT22;31358;46.008;11.144;2023-03-04T14:14:46;15.50;74.20
45643;DHT22;31358;46.008;11.144;2023-03-04T14:17:34;15.40;74.60
45643;DHT22;31358;46.008;11.144;2023-03-04T14:20:04;15.50;75.50
45643;DHT22;31358;46.008;11.144;2023-03-04T14:22:35;15.50;73.50
45643;DHT22;31358;46.008;11.144;2023-03-04T14:25:27;15.50;73.70
45643;DHT22;31358;46.008;11.144;2023-03-04T14:28:13;15.80;73.60
45643;DHT22;31358;46.008;11.144;2023-03-04T14:30:41;16.00;74.90
45643;DHT22;31358;46.008;11.144;2023-03-04T14:33:11;15.80;74.60
45643;DHT22;31358;46.008;11.144;2023-03-04T14:35:38;15.90;74.20
45643;DHT22;31358;46.008;11.144;2023-03-04T14:38:06;15.80;73.50
45643;DHT22;31358;46.008;11.144;2023-03-04T14:40:40;15.70;73.90
45643;DHT22;31358;46.008;11.144;2023-03-04T14:43:19;15.80;75.30
45643;DHT22;31358;46.008;11.144;2023-03-04T14:45:48;15.80;74.30
45643;DHT22;31358;46.008;11.144;2023-03-04T14:48:33;15.90;73.50
45643;DHT22;31358;46.008;11.144;2023-03-04T14:50:59;15.90;73.70
45643;DHT22;31358;46.008;11.144;2023-03-04T14:53:27;15.80;73.70
45643;DHT22;31358;46.008;11.144;2023-03-04T14:56:05;15.80;73.20
45643;DHT22;31358;46.008;11.144;2023-03-04T14:58:38;15.70;73.80
45643;DHT22;31358;46.008;11.144;2023-03-04T15:01:21;15.80;75.00
45643;DHT22;31358;46.008;11.144;2023-03-04T15:04:10;15.80;74.20
45643;DHT22;31358;46.008;11.144;2023-03-04T15:06:51;15.80;74.80
45643;DHT22;31358;46.008;11.144;2023-03-04T15:09:26;15.80;74.90
45643;DHT22;31358;46.008;11.144;2023-03-04T15:12:01;15.80;75.80
45643;DHT22;31358;46.008;11.144;2023-03-04T15:14:45;15.80;75.70
45643;DHT22;31358;46.008;11.144;2023-03-04T15:17:32;15.60;76.70
45643;DHT22;31358;46.008;11.144;2023-03-04T15:22:31;15.50;76.70
45643;DHT22;31358;46.008;11.144;2023-03-04T15:24:57;15.50;77.00
45643;DHT22;31358;46.008;11.144;2023-03-04T15:27:25;15.60;77.20
45643;DHT22;31358;46.008;11.144;2023-03-04T15:29:52;15.60;77.10
45643;DHT22;31358;46.008;11.144;2023-03-04T15:32:29;15.50;76.60
45643;DHT22;31358;46.008;11.144;2023-03-04T15:34:55;15.40;78.30
45643;DHT22;31358;46.008;11.144;2023-03-04T15:37:28;15.30;78.90
45643;DHT22;31358;46.008;11.144;2023-03-04T15:39:57;15.10;79.20
45643;DHT22;31358;46.008;11.144;2023-03-04T15:42:23;15.00;80.30
45643;DHT22;31358;46.008;11.144;2023-03-04T15:44:49;14.90;79.70
45643;DHT22;31358;46.008;11.144;2023-03-04T15:47:14;14.70;80.60
45643;DHT22;31358;46.008;11.144;2023-03-04T15:49:41;14.80;80.70
45643;DHT22;31358;46.008;11.144;2023-03-04T15:52:20;14.80;81.30
45643;DHT22;31358;46.008;11.144;2023-03-04T15:54:47;14.60;81.40
45643;DHT22;31358;46.008;11.144;2023-03-04T15:57:23;14.60;82.10
45643;DHT22;31358;46.008;11.144;2023-03-04T15:59:49;14.50;82.00
45643;DHT22;31358;46.008;11.144;2023-03-04T16:02:25;14.40;82.10
45643;DHT22;31358;46.008;11.144;2023-03-04T16:04:53;14.30;83.60
45643;DHT22;31358;46.008;11.144;2023-03-04T16:07:23;14.10;83.70
45643;DHT22;31358;46.008;11.144;2023-03-04T16:09:56;13.90;84.10
45643;DHT22;31358;46.008;11.144;2023-03-04T16:12:23;13.60;85.10
45643;DHT22;31358;46.008;11.144;2023-03-04T16:14:50;13.40;86.70
45643;DHT22;31358;46.008;11.144;2023-03-04T16:17:17;13.20;87.90
45643;DHT22;31358;46.008;11.144;2023-03-04T16:19:43;13.10;88.30
45643;DHT22;31358;46.008;11.144;2023-03-04T16:22:17;12.90;89.50
45643;DHT22;31358;46.008;11.144;2023-03-04T16:24:44;12.70;90.20
45643;DHT22;31358;46.008;11.144;2023-03-04T16:27:14;12.50;90.70
45643;DHT22;31358;46.008;11.144;2023-03-04T16:29:40;12.50;90.80
45643;DHT22;31358;46.008;11.144;2023-03-04T16:32:06;12.50;91.00
45643;DHT22;31358;46.008;11.144;2023-03-04T16:34:33;12.30;91.20
45643;DHT22;31358;46.008;11.144;2023-03-04T16:37:01;12.30;91.50
45643;DHT22;31358;46.008;11.144;2023-03-04T16:39:28;12.20;91.90
45643;DHT22;31358;46.008;11.144;2023-03-04T16:41:54;12.10;92.10
45643;DHT22;31358;46.008;11.144;2023-03-04T16:44:20;12.10;92.30
45643;DHT22;31358;46.008;11.144;2023-03-04T16:46:45;12.00;92.40
45643;DHT22;31358;46.008;11.144;2023-03-04T16:49:11;12.00;92.40
45643;DHT22;31358;46.008;11.144;2023-03-04T16:51:47;11.90;92.60
45643;DHT22;31358;46.008;11.144;2023-03-04T16:54:17;11.90;92.90
45643;DHT22;31358;46.008;11.144;2023-03-04T16:56:43;11.80;93.10
45643;DHT22;31358;46.008;11.144;2023-03-04T16:59:14;11.70;93.20
45643;DHT22;31358;46.008;11.144;2023-03-04T17:01:41;11.60;93.30
45643;DHT22;31358;46.008;11.144;2023-03-04T17:04:06;11.60;93.70
45643;DHT22;31358;46.008;11.144;2023-03-04T17:06:32;11.50;93.70
45643;DHT22;31358;46.008;11.144;2023-03-04T17:09:00;11.50;93.70
45643;DHT22;31358;46.008;11.144;2023-03-04T17:11:26;11.50;94.00
45643;DHT22;31358;46.008;11.144;2023-03-04T17:13:51;11.50;94.00
45643;DHT22;31358;46.008;11.144;2023-03-04T17:16:17;11.50;94.00
45643;DHT22;31358;46.008;11.144;2023-03-04T17:18:44;11.30;93.90
45643;DHT22;31358;46.008;11.144;2023-03-04T17:21:17;11.40;94.10
45643;DHT22;31358;46.008;11.144;2023-03-04T17:23:43;11.30;94.10